sensor_id;sensor_type;location;lat;lon;timestamp;pressure;altitude;pressure_sealevel;temperature;humidity
7026;BME280;3554;42.132;24.786;2023-01-27T00:00:14;97679.81;;;1.64;100.00
7026;BME280;3554;42.132;24.786;2023-01-27T00:02:43;97647.84;;;1.44;100.00
7026;BME280;3554;42.132;24.786;2023-01-27T00:05:12;97687.81;;;1.55;100.00
7026;BME280;3554;42.132;24.786;2023-01-27T00:07:40;97704.09;;;1.57;100.00
7026;BME280;3554;42.132;24.786;2023-01-27T00:10:12;97696.41;;;1.56;100.00
7026;BME280;3554;42.132;24.786;2023-01-27T00:12:40;97713.25;;;1.66;100.00
7026;BME280;3554;42.132;24.786;2023-01-27T00:15:24;97715.03;;;1.64;100.00
7026;BME280;3554;42.132;24.786;2023-01-27T00:17:53;97709.94;;;1.62;100.00
7026;BME280;3554;42.132;24.786;2023-01-27T00:20:19;97703.91;;;1.63;100.00
7026;BME280;3554;42.132;24.786;2023-01-27T00:23:13;97709.06;;;1.63;100.00
7026;BME280;3554;42.132;24.786;2023-01-27T00:25:58;97707.63;;;1.55;100.00
7026;BME280;3554;42.132;24.786;2023-01-27T00:28:26;97692.63;;;1.66;100.00
7026;BME280;3554;42.132;24.786;2023-01-27T00:30:56;97684.78;;;1.70;100.00
7026;BME280;3554;42.132;24.786;2023-01-27T00:33:24;97666.34;;;1.56;100.00
7026;BME280;3554;42.132;24.786;2023-01-27T00:35:56;97693.44;;;1.68;100.00
7026;BME280;3554;42.132;24.786;2023-01-27T00:38:23;97680.66;;;1.65;100.00
7026;BME280;3554;42.132;24.786;2023-01-27T00:40:50;97690.72;;;1.72;100.00
7026;BME280;3554;42.132;24.786;2023-01-27T00:43:30;97699.94;;;1.79;100.00
7026;BME280;3554;42.132;24.786;2023-01-27T00:45:57;97704.25;;;1.79;100.00
7026;BME280;3554;42.132;24.786;2023-01-27T00:48:25;97701.63;;;1.80;100.00
7026;BME280;3554;42.132;24.786;2023-01-27T00:50:52;97697.94;;;1.87;100.00
7026;BME280;3554;42.132;24.786;2023-01-27T00:53:19;97699.72;;;1.85;100.00
7026;BME280;3554;42.132;24.786;2023-01-27T00:55:45;97701.31;;;1.89;100.00
7026;BME280;3554;42.132;24.786;2023-01-27T00:58:12;97698.94;;;1.83;100.00
7026;BME280;3554;42.132;24.786;2023-01-27T01:00:39;97641.19;;;1.63;100.00
7026;BME280;3554;42.132;24.786;2023-01-27T01:03:06;97656.72;;;1.86;100.00
7026;BME280;3554;42.132;24.786;2023-01-27T01:05:34;97670.38;;;1.89;100.00
7026;BME280;3554;42.132;24.786;2023-01-27T01:08:01;97639.84;;;1.77;100.00
7026;BME280;3554;42.132;24.786;2023-01-27T01:10:28;97626.28;;;1.72;100.00
7026;BME280;3554;42.132;24.786;2023-01-27T01:12:55;97650.34;;;1.71;100.00
7026;BME280;3554;42.132;24.786;2023-01-27T01:15:21;97663.09;;;1.76;100.00
7026;BME280;3554;42.132;24.786;2023-01-27T01:17:48;97666.31;;;1.82;100.00
7026;BME280;3554;42.132;24.786;2023-01-27T01:20:15;97690.13;;;1.90;100.00
7026;BME280;3554;42.132;24.786;2023-01-27T01:22:43;97708.81;;;1.97;100.00
7026;BME280;3554;42.132;24.786;2023-01-27T01:25:10;97732.25;;;1.89;100.00
7026;BME280;3554;42.132;24.786;2023-01-27T01:27:37;97730.78;;;1.82;100.00
7026;BME280;3554;42.132;24.786;2023-01-27T01:30:04;97737.81;;;1.77;100.00
7026;BME280;3554;42.132;24.786;2023-01-27T01:32:31;97760.19;;;1.77;100.00
7026;BME280;3554;42.132;24.786;2023-01-27T01:34:58;97757.06;;;1.67;100.00
7026;BME280;3554;42.132;24.786;2023-01-27T01:37:25;97745.63;;;1.76;100.00
7026;BME280;3554;42.132;24.786;2023-01-27T01:39:53;97728.31;;;1.79;100.00
7026;BME280;3554;42.132;24.786;2023-01-27T01:42:19;97724.78;;;1.82;100.00
7026;BME280;3554;42.132;24.786;2023-01-27T01:44:46;97715.19;;;1.87;100.00
7026;BME280;3554;42.132;24.786;2023-01-27T01:47:14;97708.19;;;1.90;100.00
7026;BME280;3554;42.132;24.786;2023-01-27T01:49:43;97699.53;;;1.91;100.00
7026;BME280;3554;42.132;24.786;2023-01-27T01:52:15;97703.84;;;1.91;100.00
7026;BME280;3554;42.132;24.786;2023-01-27T01:54:46;97700.28;;;1.95;100.00
7026;BME280;3554;42.132;24.786;2023-01-27T01:57:19;97651.59;;;1.60;100.00
7026;BME280;3554;42.132;24.786;2023-01-27T01:59:50;97687.00;;;1.81;100.00
7026;BME280;3554;42.132;24.786;2023-01-27T02:02:21;97658.38;;;1.62;100.00
7026;BME280;3554;42.132;24.786;2023-01-27T02:04:52;97699.19;;;2.02;100.00
7026;BME280;3554;42.132;24.786;2023-01-27T02:07:24;97714.22;;;1.89;100.00
7026;BME280;3554;42.132;24.786;2023-01-27T02:09:55;97711.03;;;2.07;100.00
7026;BME280;3554;42.132;24.786;2023-01-27T02:12:23;97702.38;;;2.08;100.00
7026;BME280;3554;42.132;24.786;2023-01-27T02:14:50;97700.34;;;1.93;100.00
7026;BME280;3554;42.132;24.786;2023-01-27T02:17:17;97705.97;;;2.04;100.00
7026;BME280;3554;42.132;24.786;2023-01-27T02:19:50;97712.13;;;2.00;100.00
7026;BME280;3554;42.132;24.786;2023-01-27T02:22:24;97700.03;;;2.02;100.00
7026;BME280;3554;42.132;24.786;2023-01-27T02:25:01;97682.97;;;1.98;100.00
7026;BME280;3554;42.132;24.786;2023-01-27T02:27:31;97689.03;;;1.96;100.00
7026;BME280;3554;42.132;24.786;2023-01-27T02:32:42;97687.53;;;1.90;100.00
7026;BME280;3554;42.132;24.786;2023-01-27T02:35:14;97683.75;;;2.00;100.00
7026;BME280;3554;42.132;24.786;2023-01-27T02:37:42;97688.97;;;1.99;100.00
7026;BME280;3554;42.132;24.786;2023-01-27T02:40:10;97710.28;;;2.04;100.00
7026;BME280;3554;42.132;24.786;2023-01-27T02:42:39;97705.94;;;2.06;100.00
7026;BME280;3554;42.132;24.786;2023-01-27T02:45:06;97705.13;;;2.04;100.00
7026;BME280;3554;42.132;24.786;2023-01-27T02:47:33;97723.97;;;2.06;100.00
7026;BME280;3554;42.132;24.786;2023-01-27T02:50:00;97735.84;;;2.11;100.00
7026;BME280;3554;42.132;24.786;2023-01-27T02:52:27;97724.19;;;2.00;100.00
7026;BME280;3554;42.132;24.786;2023-01-27T02:54:54;97732.56;;;2.06;100.00
7026;BME280;3554;42.132;24.786;2023-01-27T02:57:20;97743.56;;;2.11;100.00
7026;BME280;3554;42.132;24.786;2023-01-27T02:59:48;97727.97;;;2.14;100.00
7026;BME280;3554;42.132;24.786;2023-01-27T03:02:15;97735.00;;;2.36;100.00
7026;BME280;3554;42.132;24.786;2023-01-27T03:04:47;97727.72;;;2.47;100.00
7026;BME280;3554;42.132;24.786;2023-01-27T03:07:14;97726.72;;;2.51;100.00
7026;BME280;3554;42.132;24.786;2023-01-27T03:09:40;97736.41;;;2.44;100.00
7026;BME280;3554;42.132;24.786;2023-01-27T03:12:07;97733.63;;;2.26;100.00
7026;BME280;3554;42.132;24.786;2023-01-27T03:14:46;97749.06;;;2.27;100.00
7026;BME280;3554;42.132;24.786;2023-01-27T03:17:32;97771.59;;;2.22;100.00
7026;BME280;3554;42.132;24.786;2023-01-27T03:20:16;97769.59;;;2.30;100.00
7026;BME280;3554;42.132;24.786;2023-01-27T03:22:43;97792.25;;;2.22;100.00
7026;BME280;3554;42.132;24.786;2023-01-27T03:25:10;97817.00;;;2.28;100.00
7026;BME280;3554;42.132;24.786;2023-01-27T03:27:37;97852.22;;;2.29;100.00
7026;BME280;3554;42.132;24.786;2023-01-27T03:30:05;97862.50;;;2.30;100.00
7026;BME280;3554;42.132;24.786;2023-01-27T03:32:34;97854.63;;;2.35;100.00
7026;BME280;3554;42.132;24.786;2023-01-27T03:35:01;97864.03;;;2.36;100.00
7026;BME280;3554;42.132;24.786;2023-01-27T03:37:30;97868.41;;;2.34;100.00
7026;BME280;3554;42.132;24.786;2023-01-27T03:40:15;97879.81;;;2.27;100.00
7026;BME280;3554;42.132;24.786;2023-01-27T03:43:00;97896.00;;;2.32;100.00
7026;BME280;3554;42.132;24.786;2023-01-27T03:45:47;97862.16;;;2.14;100.00
7026;BME280;3554;42.132;24.786;2023-01-27T03:48:33;97903.16;;;2.24;100.00
7026;BME280;3554;42.132;24.786;2023-01-27T03:51:01;97884.84;;;2.03;100.00
7026;BME280;3554;42.132;24.786;2023-01-27T03:53:28;97947.69;;;2.30;100.00
7026;BME280;3554;42.132;24.786;2023-01-27T03:55:55;97958.00;;;2.30;100.00
7026;BME280;3554;42.132;24.786;2023-01-27T03:58:24;97957.38;;;2.50;100.00
7026;BME280;3554;42.132;24.786;2023-01-27T04:00:52;97948.94;;;2.45;100.00
7026;BME280;3554;42.132;24.786;2023-01-27T04:03:20;97958.38;;;2.46;100.00
7026;BME280;3554;42.132;24.786;2023-01-27T04:06:08;97958.94;;;2.55;100.00
7026;BME280;3554;42.132;24.786;2023-01-27T04:08:53;97939.94;;;2.58;100.00
7026;BME280;3554;42.132;24.786;2023-01-27T04:11:20;97957.22;;;2.56;100.00
7026;BME280;3554;42.132;24.786;2023-01-27T04:14:05;97977.13;;;2.52;100.00
7026;BME280;3554;42.132;24.786;2023-01-27T04:16:32;97976.84;;;2.61;100.00
7026;BME280;3554;42.132;24.786;2023-01-27T04:19:01;97985.72;;;2.53;100.00
7026;BME280;3554;42.132;24.786;2023-01-27T04:21:30;97981.88;;;2.64;100.00
7026;BME280;3554;42.132;24.786;2023-01-27T04:23:57;97992.28;;;2.63;100.00
7026;BME280;3554;42.132;24.786;2023-01-27T04:26:24;97990.72;;;2.57;100.00
7026;BME280;3554;42.132;24.786;2023-01-27T04:28:57;98006.06;;;2.62;100.00
7026;BME280;3554;42.132;24.786;2023-01-27T04:31:24;97968.69;;;2.46;100.00
7026;BME280;3554;42.132;24.786;2023-01-27T04:33:50;98004.38;;;2.61;100.00
7026;BME280;3554;42.132;24.786;2023-01-27T04:36:17;98006.06;;;2.62;100.00
7026;BME280;3554;42.132;24.786;2023-01-27T04:38:45;98018.44;;;2.52;100.00
7026;BME280;3554;42.132;24.786;2023-01-27T04:41:13;98028.53;;;2.58;100.00
7026;BME280;3554;42.132;24.786;2023-01-27T04:43:39;98025.13;;;2.58;100.00
7026;BME280;3554;42.132;24.786;2023-01-27T04:46:06;98026.72;;;2.62;100.00
7026;BME280;3554;42.132;24.786;2023-01-27T04:48:33;98030.94;;;2.64;100.00
7026;BME280;3554;42.132;24.786;2023-01-27T04:51:00;98042.22;;;2.62;100.00
7026;BME280;3554;42.132;24.786;2023-01-27T04:53:26;98041.56;;;2.55;100.00
7026;BME280;3554;42.132;24.786;2023-01-27T04:56:00;98043.34;;;2.53;100.00
7026;BME280;3554;42.132;24.786;2023-01-27T04:58:27;98054.47;;;2.55;100.00
7026;BME280;3554;42.132;24.786;2023-01-27T05:00:54;98029.28;;;2.62;100.00
7026;BME280;3554;42.132;24.786;2023-01-27T05:03:21;98044.78;;;2.62;100.00
7026;BME280;3554;42.132;24.786;2023-01-27T05:05:48;98037.78;;;2.67;100.00
7026;BME280;3554;42.132;24.786;2023-01-27T05:08:14;98050.63;;;2.68;100.00
7026;BME280;3554;42.132;24.786;2023-01-27T05:10:42;98016.88;;;2.47;100.00
7026;BME280;3554;42.132;24.786;2023-01-27T05:13:11;98064.31;;;2.72;100.00
7026;BME280;3554;42.132;24.786;2023-01-27T05:15:38;98071.19;;;2.71;100.00
7026;BME280;3554;42.132;24.786;2023-01-27T05:18:05;98096.31;;;2.66;100.00
7026;BME280;3554;42.132;24.786;2023-01-27T05:20:31;98063.16;;;2.53;100.00
7026;BME280;3554;42.132;24.786;2023-01-27T05:22:58;98100.91;;;2.57;100.00
7026;BME280;3554;42.132;24.786;2023-01-27T05:25:41;98074.94;;;2.32;100.00
7026;BME280;3554;42.132;24.786;2023-01-27T05:28:08;98119.94;;;2.54;100.00
7026;BME280;3554;42.132;24.786;2023-01-27T05:30:37;98115.56;;;2.56;100.00
7026;BME280;3554;42.132;24.786;2023-01-27T05:33:04;98104.56;;;2.50;100.00
7026;BME280;3554;42.132;24.786;2023-01-27T05:35:32;98124.28;;;2.52;100.00
7026;BME280;3554;42.132;24.786;2023-01-27T05:37:59;98128.34;;;2.61;100.00
7026;BME280;3554;42.132;24.786;2023-01-27T05:40:26;98141.56;;;2.50;100.00
7026;BME280;3554;42.132;24.786;2023-01-27T05:42:53;98137.16;;;2.54;100.00
7026;BME280;3554;42.132;24.786;2023-01-27T05:45:20;98137.81;;;2.60;100.00
7026;BME280;3554;42.132;24.786;2023-01-27T05:47:51;98133.53;;;2.59;100.00
7026;BME280;3554;42.132;24.786;2023-01-27T05:50:18;98136.78;;;2.66;100.00
7026;BME280;3554;42.132;24.786;2023-01-27T05:52:45;98144.53;;;2.66;100.00
7026;BME280;3554;42.132;24.786;2023-01-27T05:55:12;98066.72;;;2.19;100.00
7026;BME280;3554;42.132;24.786;2023-01-27T05:57:38;98132.47;;;2.66;100.00
7026;BME280;3554;42.132;24.786;2023-01-27T06:00:06;98125.66;;;2.64;100.00
7026;BME280;3554;42.132;24.786;2023-01-27T06:02:33;98082.44;;;2.41;100.00
7026;BME280;3554;42.132;24.786;2023-01-27T06:05:01;98121.19;;;2.70;100.00
7026;BME280;3554;42.132;24.786;2023-01-27T06:07:28;98123.56;;;2.76;100.00
7026;BME280;3554;42.132;24.786;2023-01-27T06:09:55;98117.38;;;2.82;100.00
7026;BME280;3554;42.132;24.786;2023-01-27T06:12:22;98103.38;;;2.89;100.00
7026;BME280;3554;42.132;24.786;2023-01-27T06:14:48;98101.00;;;2.83;100.00
7026;BME280;3554;42.132;24.786;2023-01-27T06:17:15;98106.22;;;2.80;100.00
7026;BME280;3554;42.132;24.786;2023-01-27T06:19:42;98111.97;;;2.89;100.00
7026;BME280;3554;42.132;24.786;2023-01-27T06:22:10;98116.28;;;2.89;100.00
7026;BME280;3554;42.132;24.786;2023-01-27T06:24:37;98112.56;;;2.99;100.00
7026;BME280;3554;42.132;24.786;2023-01-27T06:27:04;98111.38;;;3.09;100.00
7026;BME280;3554;42.132;24.786;2023-01-27T06:29:30;98121.41;;;3.18;100.00
7026;BME280;3554;42.132;24.786;2023-01-27T06:31:57;98135.28;;;3.15;100.00
7026;BME280;3554;42.132;24.786;2023-01-27T06:34:24;98126.44;;;3.22;100.00
7026;BME280;3554;42.132;24.786;2023-01-27T06:36:52;98119.69;;;3.18;100.00
7026;BME280;3554;42.132;24.786;2023-01-27T06:39:20;98130.56;;;3.28;100.00
7026;BME280;3554;42.132;24.786;2023-01-27T06:41:48;98121.13;;;3.27;100.00
7026;BME280;3554;42.132;24.786;2023-01-27T06:44:15;98141.66;;;3.32;100.00
7026;BME280;3554;42.132;24.786;2023-01-27T06:46:42;98144.06;;;3.38;100.00
7026;BME280;3554;42.132;24.786;2023-01-27T06:49:09;98100.97;;;3.37;100.00
7026;BME280;3554;42.132;24.786;2023-01-27T06:51:35;98096.56;;;3.40;100.00
7026;BME280;3554;42.132;24.786;2023-01-27T06:54:02;98117.25;;;3.40;100.00
7026;BME280;3554;42.132;24.786;2023-01-27T06:56:31;98118.94;;;3.41;100.00
7026;BME280;3554;42.132;24.786;2023-01-27T06:58:57;98120.44;;;3.48;100.00
7026;BME280;3554;42.132;24.786;2023-01-27T07:01:24;98133.06;;;3.57;100.00
7026;BME280;3554;42.132;24.786;2023-01-27T07:03:52;98116.41;;;3.66;100.00
7026;BME280;3554;42.132;24.786;2023-01-27T07:06:18;98122.81;;;3.80;100.00
7026;BME280;3554;42.132;24.786;2023-01-27T07:08:45;98121.66;;;3.89;100.00
7026;BME280;3554;42.132;24.786;2023-01-27T07:11:14;98117.38;;;3.88;100.00
7026;BME280;3554;42.132;24.786;2023-01-27T07:13:42;98111.28;;;3.89;100.00
7026;BME280;3554;42.132;24.786;2023-01-27T07:16:10;98116.41;;;3.90;100.00
7026;BME280;3554;42.132;24.786;2023-01-27T07:18:36;98117.88;;;3.73;100.00
7026;BME280;3554;42.132;24.786;2023-01-27T07:21:05;98116.47;;;3.64;100.00
7026;BME280;3554;42.132;24.786;2023-01-27T07:23:31;98111.66;;;3.78;100.00
7026;BME280;3554;42.132;24.786;2023-01-27T07:26:00;98046.97;;;3.54;100.00
7026;BME280;3554;42.132;24.786;2023-01-27T07:28:27;98087.06;;;3.91;100.00
7026;BME280;3554;42.132;24.786;2023-01-27T07:30:59;98045.88;;;3.85;100.00
7026;BME280;3554;42.132;24.786;2023-01-27T07:33:26;98064.75;;;4.12;100.00
7026;BME280;3554;42.132;24.786;2023-01-27T07:35:53;98068.47;;;4.28;100.00
7026;BME280;3554;42.132;24.786;2023-01-27T07:38:20;98071.53;;;4.39;100.00
7026;BME280;3554;42.132;24.786;2023-01-27T07:40:47;98066.81;;;4.49;100.00
7026;BME280;3554;42.132;24.786;2023-01-27T07:43:13;98063.97;;;4.56;100.00
7026;BME280;3554;42.132;24.786;2023-01-27T07:45:40;98048.00;;;4.67;100.00
7026;BME280;3554;42.132;24.786;2023-01-27T07:48:08;98015.47;;;4.60;100.00
7026;BME280;3554;42.132;24.786;2023-01-27T07:50:38;98003.06;;;4.68;100.00
7026;BME280;3554;42.132;24.786;2023-01-27T07:53:05;97997.47;;;4.78;100.00
7026;BME280;3554;42.132;24.786;2023-01-27T07:55:32;97987.38;;;4.92;100.00
7026;BME280;3554;42.132;24.786;2023-01-27T07:58:00;97987.38;;;4.92;100.00
7026;BME280;3554;42.132;24.786;2023-01-27T08:00:27;97966.00;;;4.87;100.00
7026;BME280;3554;42.132;24.786;2023-01-27T08:02:55;97965.78;;;4.92;100.00
7026;BME280;3554;42.132;24.786;2023-01-27T08:05:23;97966.72;;;4.91;100.00
7026;BME280;3554;42.132;24.786;2023-01-27T08:07:51;97944.28;;;4.90;100.00
7026;BME280;3554;42.132;24.786;2023-01-27T08:10:19;97893.13;;;4.53;100.00
7026;BME280;3554;42.132;24.786;2023-01-27T08:12:46;97921.56;;;4.96;100.00
7026;BME280;3554;42.132;24.786;2023-01-27T08:15:13;97924.66;;;5.04;100.00
7026;BME280;3554;42.132;24.786;2023-01-27T08:17:40;97904.84;;;5.03;100.00
7026;BME280;3554;42.132;24.786;2023-01-27T08:20:08;97892.84;;;5.01;100.00
7026;BME280;3554;42.132;24.786;2023-01-27T08:22:36;97873.59;;;5.06;100.00
7026;BME280;3554;42.132;24.786;2023-01-27T08:25:04;97850.53;;;4.80;100.00
7026;BME280;3554;42.132;24.786;2023-01-27T08:27:31;97826.34;;;4.80;100.00
7026;BME280;3554;42.132;24.786;2023-01-27T08:29:58;97791.56;;;4.85;100.00
7026;BME280;3554;42.132;24.786;2023-01-27T08:32:24;97720.78;;;5.03;100.00
7026;BME280;3554;42.132;24.786;2023-01-27T08:34:51;97611.06;;;5.03;100.00
7026;BME280;3554;42.132;24.786;2023-01-27T08:37:18;97448.72;;;5.00;100.00
7026;BME280;3554;42.132;24.786;2023-01-27T08:39:46;97247.84;;;5.09;100.00
7026;BME280;3554;42.132;24.786;2023-01-27T08:42:13;97114.72;;;5.10;100.00
7026;BME280;3554;42.132;24.786;2023-01-27T08:44:40;96953.19;;;4.94;100.00
7026;BME280;3554;42.132;24.786;2023-01-27T08:47:07;96752.19;;;5.32;100.00
7026;BME280;3554;42.132;24.786;2023-01-27T08:49:33;96767.44;;;5.36;100.00
7026;BME280;3554;42.132;24.786;2023-01-27T08:52:00;96711.09;;;5.53;100.00
7026;BME280;3554;42.132;24.786;2023-01-27T08:54:27;96743.31;;;5.63;100.00
7026;BME280;3554;42.132;24.786;2023-01-27T08:56:55;96548.72;;;5.11;100.00
7026;BME280;3554;42.132;24.786;2023-01-27T08:59:22;96344.91;;;5.35;100.00
7026;BME280;3554;42.132;24.786;2023-01-27T09:01:49;96563.09;;;5.29;100.00
7026;BME280;3554;42.132;24.786;2023-01-27T09:04:15;96398.41;;;5.11;100.00
7026;BME280;3554;42.132;24.786;2023-01-27T09:06:42;96307.78;;;5.09;100.00
7026;BME280;3554;42.132;24.786;2023-01-27T09:09:12;96332.59;;;5.26;100.00
7026;BME280;3554;42.132;24.786;2023-01-27T09:11:41;96253.56;;;5.31;100.00
7026;BME280;3554;42.132;24.786;2023-01-27T09:14:10;96261.88;;;5.11;100.00
7026;BME280;3554;42.132;24.786;2023-01-27T09:16:37;96258.66;;;5.08;100.00
7026;BME280;3554;42.132;24.786;2023-01-27T09:19:03;96260.13;;;5.12;100.00
7026;BME280;3554;42.132;24.786;2023-01-27T09:21:30;96240.13;;;5.14;100.00
7026;BME280;3554;42.132;24.786;2023-01-27T09:23:57;96223.22;;;5.08;100.00
7026;BME280;3554;42.132;24.786;2023-01-27T09:26:24;96238.25;;;5.16;100.00
7026;BME280;3554;42.132;24.786;2023-01-27T09:28:51;96241.00;;;5.25;100.00
7026;BME280;3554;42.132;24.786;2023-01-27T09:31:19;96232.63;;;5.22;100.00
7026;BME280;3554;42.132;24.786;2023-01-27T09:33:46;96245.09;;;5.17;100.00
7026;BME280;3554;42.132;24.786;2023-01-27T09:36:16;96224.31;;;5.29;100.00
7026;BME280;3554;42.132;24.786;2023-01-27T09:38:48;96224.75;;;5.23;100.00
7026;BME280;3554;42.132;24.786;2023-01-27T09:41:32;96213.56;;;5.46;100.00
7026;BME280;3554;42.132;24.786;2023-01-27T09:47:22;96214.88;;;5.65;100.00
7026;BME280;3554;42.132;24.786;2023-01-27T09:50:17;96221.00;;;5.64;100.00
7026;BME280;3554;42.132;24.786;2023-01-27T09:53:02;96269.75;;;5.71;100.00
7026;BME280;3554;42.132;24.786;2023-01-27T09:55:39;96359.22;;;5.53;100.00
7026;BME280;3554;42.132;24.786;2023-01-27T09:58:14;96375.50;;;5.55;100.00
7026;BME280;3554;42.132;24.786;2023-01-27T10:00:52;96412.22;;;5.49;100.00
7026;BME280;3554;42.132;24.786;2023-01-27T10:03:30;96428.28;;;5.41;100.00
7026;BME280;3554;42.132;24.786;2023-01-27T10:06:11;96434.53;;;5.39;100.00
7026;BME280;3554;42.132;24.786;2023-01-27T10:09:01;96430.59;;;5.46;100.00
7026;BME280;3554;42.132;24.786;2023-01-27T10:11:37;96435.88;;;5.44;100.00
7026;BME280;3554;42.132;24.786;2023-01-27T10:14:20;96413.88;;;5.63;100.00
7026;BME280;3554;42.132;24.786;2023-01-27T10:17:01;96404.66;;;5.84;100.00
7026;BME280;3554;42.132;24.786;2023-01-27T10:19:47;96405.34;;;5.98;100.00
7026;BME280;3554;42.132;24.786;2023-01-27T10:22:20;96448.56;;;5.87;100.00
7026;BME280;3554;42.132;24.786;2023-01-27T10:25:04;96464.63;;;5.79;100.00
7026;BME280;3554;42.132;24.786;2023-01-27T10:27:35;96467.44;;;5.76;100.00
7026;BME280;3554;42.132;24.786;2023-01-27T10:30:09;96481.31;;;5.63;100.00
7026;BME280;3554;42.132;24.786;2023-01-27T10:32:43;96473.53;;;5.75;100.00
7026;BME280;3554;42.132;24.786;2023-01-27T10:35:16;96483.63;;;5.80;100.00
7026;BME280;3554;42.132;24.786;2023-01-27T10:37:56;96494.41;;;5.74;100.00
7026;BME280;3554;42.132;24.786;2023-01-27T10:40:32;96481.94;;;5.79;100.00
7026;BME280;3554;42.132;24.786;2023-01-27T10:43:06;96434.94;;;5.71;100.00
7026;BME280;3554;42.132;24.786;2023-01-27T10:45:37;96477.84;;;5.89;100.00
7026;BME280;3554;42.132;24.786;2023-01-27T10:48:21;96485.91;;;5.97;100.00
7026;BME280;3554;42.132;24.786;2023-01-27T10:50:56;96471.47;;;6.05;100.00
7026;BME280;3554;42.132;24.786;2023-01-27T10:53:30;96440.44;;;5.91;100.00
7026;BME280;3554;42.132;24.786;2023-01-27T10:56:03;96506.06;;;5.93;100.00
7026;BME280;3554;42.132;24.786;2023-01-27T10:58:42;96483.66;;;5.92;100.00
7026;BME280;3554;42.132;24.786;2023-01-27T11:01:12;96500.44;;;6.12;100.00
7026;BME280;3554;42.132;24.786;2023-01-27T11:03:42;96487.97;;;6.29;100.00
7026;BME280;3554;42.132;24.786;2023-01-27T11:06:14;96503.53;;;6.29;100.00
7026;BME280;3554;42.132;24.786;2023-01-27T11:08:44;96465.72;;;6.25;100.00
7026;BME280;3554;42.132;24.786;2023-01-27T11:11:13;96520.53;;;6.59;100.00
7026;BME280;3554;42.132;24.786;2023-01-27T11:14:02;96531.09;;;6.68;100.00
7026;BME280;3554;42.132;24.786;2023-01-27T11:16:34;96568.75;;;6.99;100.00
7026;BME280;3554;42.132;24.786;2023-01-27T11:19:12;96589.50;;;7.11;100.00
7026;BME280;3554;42.132;24.786;2023-01-27T11:21:40;96613.84;;;7.34;100.00
7026;BME280;3554;42.132;24.786;2023-01-27T11:24:16;96696.97;;;7.35;100.00
7026;BME280;3554;42.132;24.786;2023-01-27T11:26:51;96754.31;;;7.34;100.00
7026;BME280;3554;42.132;24.786;2023-01-27T11:29:29;96806.22;;;7.48;100.00
7026;BME280;3554;42.132;24.786;2023-01-27T11:32:00;96857.34;;;7.36;100.00
7026;BME280;3554;42.132;24.786;2023-01-27T11:34:33;96876.91;;;7.42;100.00
7026;BME280;3554;42.132;24.786;2023-01-27T11:37:16;96900.22;;;7.31;100.00
7026;BME280;3554;42.132;24.786;2023-01-27T11:39:45;96905.47;;;6.92;100.00
7026;BME280;3554;42.132;24.786;2023-01-27T11:42:12;96875.16;;;6.66;100.00
7026;BME280;3554;42.132;24.786;2023-01-27T11:44:40;96846.34;;;6.69;100.00
7026;BME280;3554;42.132;24.786;2023-01-27T11:47:10;96823.34;;;6.63;100.00
7026;BME280;3554;42.132;24.786;2023-01-27T11:49:44;96785.63;;;6.70;100.00
7026;BME280;3554;42.132;24.786;2023-01-27T11:52:17;96777.63;;;6.60;100.00
7026;BME280;3554;42.132;24.786;2023-01-27T11:54:48;96749.94;;;6.46;100.00
7026;BME280;3554;42.132;24.786;2023-01-27T11:57:18;96744.50;;;6.64;100.00
7026;BME280;3554;42.132;24.786;2023-01-27T11:59:47;96744.91;;;6.70;100.00
7026;BME280;3554;42.132;24.786;2023-01-27T12:02:34;96746.53;;;6.71;100.00
7026;BME280;3554;42.132;24.786;2023-01-27T12:05:07;96739.38;;;6.75;100.00
7026;BME280;3554;42.132;24.786;2023-01-27T12:07:42;96734.09;;;6.89;100.00
7026;BME280;3554;42.132;24.786;2023-01-27T12:10:28;96740.31;;;6.99;100.00
7026;BME280;3554;42.132;24.786;2023-01-27T12:12:57;96751.25;;;6.91;100.00
7026;BME280;3554;42.132;24.786;2023-01-27T12:15:25;96767.47;;;6.95;100.00
7026;BME280;3554;42.132;24.786;2023-01-27T12:17:55;96764.13;;;6.93;100.00
7026;BME280;3554;42.132;24.786;2023-01-27T12:20:31;96771.53;;;6.99;100.00
7026;BME280;3554;42.132;24.786;2023-01-27T12:23:04;96777.09;;;6.68;100.00
7026;BME280;3554;42.132;24.786;2023-01-27T12:25:40;96761.13;;;6.74;100.00
7026;BME280;3554;42.132;24.786;2023-01-27T12:28:20;96745.00;;;6.56;100.00
7026;BME280;3554;42.132;24.786;2023-01-27T12:30:49;96762.25;;;6.70;100.00
7026;BME280;3554;42.132;24.786;2023-01-27T12:33:21;96769.31;;;6.68;100.00
7026;BME280;3554;42.132;24.786;2023-01-27T12:35:50;96778.06;;;6.92;100.00
7026;BME280;3554;42.132;24.786;2023-01-27T12:38:20;96787.84;;;7.01;100.00
7026;BME280;3554;42.132;24.786;2023-01-27T12:40:54;96800.53;;;7.05;100.00
7026;BME280;3554;42.132;24.786;2023-01-27T12:43:23;96835.91;;;7.33;100.00
7026;BME280;3554;42.132;24.786;2023-01-27T12:46:03;96871.78;;;7.40;100.00
7026;BME280;3554;42.132;24.786;2023-01-27T12:48:30;96891.38;;;7.46;100.00
7026;BME280;3554;42.132;24.786;2023-01-27T12:51:04;96791.88;;;6.55;100.00
7026;BME280;3554;42.132;24.786;2023-01-27T12:53:33;97000.94;;;7.29;100.00
7026;BME280;3554;42.132;24.786;2023-01-27T12:56:07;96879.72;;;6.21;100.00
7026;BME280;3554;42.132;24.786;2023-01-27T12:58:37;97053.69;;;6.78;100.00
7026;BME280;3554;42.132;24.786;2023-01-27T13:01:07;97037.16;;;6.79;100.00
7026;BME280;3554;42.132;24.786;2023-01-27T13:03:44;97029.03;;;6.57;100.00
7026;BME280;3554;42.132;24.786;2023-01-27T13:06:15;97010.03;;;6.42;100.00
7026;BME280;3554;42.132;24.786;2023-01-27T13:08:44;96971.91;;;6.42;100.00
7026;BME280;3554;42.132;24.786;2023-01-27T13:11:13;96940.63;;;6.44;100.00
7026;BME280;3554;42.132;24.786;2023-01-27T13:13:48;96856.13;;;6.12;100.00
7026;BME280;3554;42.132;24.786;2023-01-27T13:16:19;96870.97;;;6.36;100.00
7026;BME280;3554;42.132;24.786;2023-01-27T13:18:52;96856.66;;;6.43;100.00
7026;BME280;3554;42.132;24.786;2023-01-27T13:21:21;96835.47;;;6.37;100.00
7026;BME280;3554;42.132;24.786;2023-01-27T13:23:51;96807.84;;;6.48;100.00
7026;BME280;3554;42.132;24.786;2023-01-27T13:26:22;96815.41;;;6.51;100.00
7026;BME280;3554;42.132;24.786;2023-01-27T13:28:54;96834.56;;;6.50;100.00
7026;BME280;3554;42.132;24.786;2023-01-27T13:31:37;96806.59;;;6.54;100.00